KIRS/IRS METAR and TAF weather

Enter ICAO airport designator
Station Type Date Time Source
KIRS METAR 2018/12/15 20:56 UTC NOAA

KIRS 152056Z AUTO 03008KT 10SM CLR 04/00 A3008 RMK AO2 T00431001


Station Type Date Time Source
KIRS Decoded METAR 2018/12/15 20:56 UTC NOAA

Sturgis, Kirsch Municipal Airport, MI, United States (KIRS) 41-48-46N 085-26-21W
Dec 15, 2018 - 03:56 PM EST / 2018.12.15 2056 UTC
Wind: from the NNE (030 degrees) at 9 MPH (8 KT):0
Visibility: 10 mile(s):0
Sky conditions: clear
Temperature: 39.7 F (4.3 C)
Dew Point: 31.8 F (-0.1 C)
Relative Humidity: 73%
Pressure (altimeter): 30.08 in. Hg (1018 hPa)
ob: KIRS 152056Z AUTO 03008KT 10SM CLR 04/00 A3008 RMK AO2 T00431001
cycle: 21

Station Type Date Time Source
KIRS TAF UTC NOAA

Error!


Example: see airport list